Nearby METAR Reports

 

EIDW - Dublin Airport, Ireland
Distance from station: ENE 79km
Updated: 24/11/2017 13:00
Light rain, Showers, Mostly cloudy
Light rain, Showers, Mostly cloudy
 Wind from W
Wind: W 24 km/h
Temperature: 3°C
Wind Chill: -2°C
Dew Point: 2°C
Humidity: 93%
Barometer: 1011 hPa
Summary: Light rain, Showers
Clouds: Mostly cloudy
Visibility: 10 km
Cloud details: Few Clouds 366 m
Few Clouds 549 m
Mostly cloudy 1067 m
2017/11/24 13:00 EIDW 241300Z 28013KT 9999 -SHRA FEW012 FEW018CB BKN035 03/02 Q1011 NOSIG
EIME - Casement (mil), Ireland
Distance from station: ENE 62km
Updated: 24/11/2017 13:00
Light rain, Showers, Few clouds
Light rain, Showers, Few clouds
 Wind from WSW
Wind: WSW 26 km/h
Summary: Light rain, Showers
Clouds: Few Clouds
Visibility: 10 km
Cloud details: Few Clouds 488 m
Few Clouds 549 m
2017/11/24 13:00 EIME 241300Z 24014KT 9999 -SHRA FEW016 FEW018CB SCT0
EIWF - Waterford Arpt, Ireland
Distance from station: S 111km
Updated: 24/11/2017 13:00
Partly cloudy
Partly cloudy
 Wind from NNW
Wind: NNW 7 km/h
Temperature: 7°C
Wind Chill: 6°C
Dew Point: 3°C
Humidity: 76%
Barometer: 1012 hPa
Clouds: Partly cloudy
Visibility: 10 km
Cloud details: Few Clouds 1433 m
Partly cloudy 2134 m
2017/11/24 13:00 EIWF 241300Z 33004KT 280V010 9999 FEW047 SCT070 07/03 Q1012
 
EINN - Shannon Airport, Ireland
Distance from station: WSW 117km
Updated: 24/11/2017 13:00
Mostly cloudy
Mostly cloudy
 Wind from W
Wind: W 11 km/h
Temperature: 6°C
Wind Chill: 4°C
Dew Point: 4°C
Humidity: 87%
Barometer: 1013 hPa
Clouds: Mostly cloudy
Visibility: 10 km
Cloud details: Few Clouds 244 m
Partly cloudy 1372 m
Mostly cloudy 2743 m
2017/11/24 13:00 EINN 241300Z 28006KT 9999 FEW008 SCT045 BKN090 06/04 Q1013 NOSIG
EIKN - Connaught Apt, Ireland
Distance from station: NW 127km
Updated: 24/11/2017 13:00
Partly cloudy
Partly cloudy
 Wind from SW
Wind: SW 11 km/h
Temperature: 3°C
Wind Chill: 0°C
Dew Point: 2°C
Humidity: 93%
Barometer: 1011 hPa
Clouds: Partly cloudy
Visibility: 10 km
Cloud details: Few Clouds 183 m
Few Clouds 610 m
Partly cloudy 6706 m
2017/11/24 13:00 EIKN 241300Z 23006KT 210V280 9999 FEW006 FEW020CB SCT220 03/02 Q1011 NOSIG
EISG - Sligo Arpt, Ireland
Distance from station: NNW 148km
Updated: 24/11/2017 12:30
Partly cloudy
Partly cloudy
 Wind from W
Wind: W 28 km/h, Gust: 46 km/h
Temperature: 6°C
Wind Chill: 2°C
Dew Point: 0°C
Humidity: 66%
Barometer: 1010 hPa
Clouds: Partly cloudy
Visibility: 10 km
Cloud details: Few Clouds 975 m
Partly cloudy 1219 m
2017/11/24 12:30 EISG 241230Z 27015G25KT 9999 FEW032 SCT040 06/00 Q1010
 
EICK - Cork Arpt/Corcai, Ireland
Distance from station: SSW 165km
Updated: 24/11/2017 13:00
Mostly cloudy
Mostly cloudy
 Wind from WNW
Wind: WNW 15 km/h
Temperature: 5°C
Wind Chill: 2°C
Dew Point: 2°C
Humidity: 81%
Barometer: 1013 hPa
Clouds: Mostly cloudy
Visibility: 10 km
Cloud details: Few Clouds 305 m
Partly cloudy 1524 m
Mostly cloudy 2438 m
2017/11/24 13:00 EICK 241300Z 29008KT 9999 FEW010 SCT050 BKN080 05/02 Q1013 TEMPO 5000
EGAA - Belfast/Aldergro, United Kingdom
Distance from station: NNE 179km
Updated: 24/11/2017 12:50
Mostly cloudy
Mostly cloudy
 Wind from WSW
Wind: WSW 19 km/h
Temperature: 3°C
Wind Chill: -2°C
Dew Point: 2°C
Humidity: 93%
Barometer: 1009 hPa
Clouds: Mostly cloudy
Visibility: 10 km
Cloud details: Few Clouds 244 m
Partly cloudy 853 m
Mostly cloudy 1128 m
2017/11/24 12:50 EGAA 241250Z 25010KT 9999 FEW008 SCT028 BKN037 03/02 Q1009
EIKY - Kerry Arpt, Ireland
Distance from station: SW 182km
Updated: 24/11/2017 13:00
Mostly cloudy
Mostly cloudy
 Wind from calm
Wind: Calm
Temperature: 4°C
Dew Point: 4°C
Humidity: 100%
Barometer: 1014 hPa
Clouds: Mostly cloudy
Visibility: 10 km
Cloud details: Partly cloudy 427 m
Mostly cloudy 792 m
2017/11/24 13:00 EIKY 241300Z 00000KT 9999 SCT014 BKN026 04/04 Q1014 RERA
 
EGAC - Belfast Harbour, United Kingdom
Distance from station: NNE 188km
Updated: 24/11/2017 12:50
Partly cloudy
Partly cloudy
 Wind from WSW
Wind: WSW 17 km/h
Temperature: 5°C
Wind Chill: 2°C
Dew Point: 2°C
Humidity: 81%
Barometer: 1009 hPa
Clouds: Partly cloudy
Visibility: 10 km
Cloud details: Few Clouds 792 m
Partly cloudy 1463 m
2017/11/24 12:50 EGAC 241250Z 25009KT 220V280 9999 FEW026 SCT048 05/02 Q1009
EGOV - Valley Raf, United Kingdom
Distance from station: E 188km
Updated: 24/11/2017 12:50
Few Clouds
Few Clouds
 Wind from W
Wind: W 20 km/h
Temperature: 8°C
Wind Chill: 4°C
Dew Point: 2°C
Humidity: 66%
Barometer: 1011 hPa
Clouds: Few Clouds
Visibility: 10 km
Cloud details: Few Clouds 853 m
2017/11/24 12:50 EGOV 241250Z 27011KT 9999 FEW028 08/02 Q1011 BLU NOSIG
EGNS - Isle Of Man/Rona, United Kingdom
Distance from station: ENE 207km
Updated: 24/11/2017 12:50
Few Clouds
Few Clouds
 Wind from WSW
Wind: WSW 28 km/h
Temperature: 7°C
Wind Chill: 3°C
Dew Point: 2°C
Humidity: 71%
Barometer: 1009 hPa
Clouds: Few Clouds
Visibility: 10 km
Cloud details: Few Clouds 701 m
2017/11/24 12:50 EGNS 241250Z 25015KT 9999 FEW023 07/02 Q1009 NOSIG